Strona główna
METAR-TAF:

METAR-TAF

Lotnisko :

Fernando de Noronha, Pernambuco, Brazylia

Szerokość geograficzna: 03-51S, Długość geograficzna: 032-25W, wysokość: 56 m

Aktualna obserwacja pogody

Raport powstał 29 minut temu, godzina 10:00 UTC
Wiatr 8 kt od południowy wschód
Temperatura 28°C
Wilgotność 89%
Ciśnienie 1014 hPa
Widzialność 10 km lub więcej
Mało chmury na wysokości 1300 ft
Przerywane chmury na wysokości 10000 ft

METAR: SBFN 291000Z 13008KT 9999 FEW013 BKN100 28/26 Q1014

czas: 08:29 (10:29 UTC)

Prognoza

Raport powstał 6 godziny i 29 minut temu, godzina 04:00 UTC
Prognoza ważna od 29 godzina 06 UTC do 29 godzina 18 UTC
Wiatr 8 kt od południowy wschód
Widzialność: 8000 m
Mało chmury na wysokości 1500 ft
Stopniowe zmiany
od 29 godzina 16 UTC do 29 godzina 18 UTC
Wiatr 5 kt od północ

TAF: SBFN 290400Z 2906/2918 14008KT 8000 FEW015 TN26/2908Z TX29/2916Z BECMG 2916/2918 01005KT RMK PAY

Obserwacja i prognoza pogody dla ponad 4000 lotnisk (raport METAR i TAF).

Dostępne stacje oznaczono żółtymi i czerwonymi punktami na mapie.

Najedź kursorem aby zobaczyć nazwę stacji.

Kliknij aby zobaczyć obserwacje i prognozy pogody.

Aby zmienić mapę: kliknij na zielony przycisk z czarnym krzyżykiem, aby powiększyć; na zielony przycisk z myślnikiem, aby pomniejszyć; na zielone strzałki, aby przejść do map sąsiednich.


METAR-TAF: